Time;durP1;ratioP1;P1;durP2;ratioP2;P2;SDS_P1;SDS_P2;PMS_P1;PMS_P2;Temp;Humidity;BMP_temperature;BMP_pressure;BME280_temperature;BME280_humidity;BME280_pressure;Samples;Min_cycle;Max_cycle;Signal;HPM_P1;HPM_P2
2022/11/08 00:03:37;;;;;;;9.68;2.95;;;;;;;10.03;100.00;100977.66;4896194;29;20422;-74
2022/11/08 00:14:14;;;;;;;9.05;3.20;;;;;;;9.80;100.00;100968.53;4901133;29;19979;-74
2022/11/08 00:16:39;;;;;;;7.47;3.25;;;;;;;9.76;100.00;100971.22;4900004;29;20040;-74
2022/11/08 00:19:05;;;;;;;9.40;3.53;;;;;;;9.72;100.00;100969.56;4898754;29;20105;-74
2022/11/08 00:21:30;;;;;;;9.02;3.78;;;;;;;9.68;100.00;100967.88;4910927;29;20119;-74
2022/11/08 00:23:55;;;;;;;10.15;3.80;;;;;;;9.66;100.00;100967.06;4904939;29;20036;-74
2022/11/08 00:26:21;;;;;;;8.65;3.40;;;;;;;9.62;100.00;100968.88;4899420;29;20056;-74
2022/11/08 00:28:46;;;;;;;10.77;3.40;;;;;;;9.51;100.00;100969.03;4898945;29;20033;-74
2022/11/08 00:31:11;;;;;;;7.45;3.10;;;;;;;9.53;100.00;100964.66;4898735;29;20551;-74
2022/11/08 00:33:37;;;;;;;10.50;4.00;;;;;;;9.49;100.00;100965.63;4899317;29;20440;-74
2022/11/08 00:36:02;;;;;;;10.30;3.22;;;;;;;9.48;100.00;100969.13;4902512;29;20456;-74
2022/11/08 00:38:28;;;;;;;8.48;3.13;;;;;;;9.46;100.00;100970.88;4899392;29;20045;-74
2022/11/08 00:40:53;;;;;;;8.88;3.60;;;;;;;9.44;100.00;100962.22;4899269;29;20035;-74
2022/11/08 00:43:19;;;;;;;10.93;3.40;;;;;;;9.40;100.00;100957.97;4898454;29;20381;-74
2022/11/08 00:45:44;;;;;;;11.32;3.80;;;;;;;9.32;100.00;100944.22;4898958;29;20409;-74
2022/11/08 00:48:09;;;;;;;8.95;3.30;;;;;;;9.37;100.00;100958.00;4899046;29;20747;-74
2022/11/08 00:50:39;;;;;;;10.13;4.15;;;;;;;9.38;100.00;100955.41;4898380;29;20032;-74
2022/11/08 00:53:04;;;;;;;9.00;2.80;;;;;;;9.36;100.00;100949.34;4898874;29;20077;-74
2022/11/08 00:55:30;;;;;;;14.95;3.47;;;;;;;9.36;100.00;100956.31;4899016;29;20032;-74
2022/11/08 00:57:55;;;;;;;9.80;3.03;;;;;;;9.32;100.00;100952.03;4898174;29;20028;-74
2022/11/08 01:00:21;;;;;;;23.35;3.90;;;;;;;9.29;100.00;100945.13;4898739;29;20025;-74
2022/11/08 01:02:46;;;;;;;8.40;3.30;;;;;;;9.27;100.00;100939.09;4898804;29;20021;-74
2022/11/08 01:05:11;;;;;;;10.10;3.22;;;;;;;9.29;100.00;100941.69;4898193;29;20033;-74
2022/11/08 01:07:37;;;;;;;9.30;3.60;;;;;;;9.24;100.00;100931.34;4898745;29;20016;-74
2022/11/08 01:10:04;;;;;;;12.80;3.80;;;;;;;9.27;100.00;100949.50;4898379;29;20029;-74
2022/11/08 01:12:29;;;;;;;12.13;3.85;;;;;;;9.31;100.00;100942.50;4899743;29;20024;-74
2022/11/08 01:14:54;;;;;;;10.13;3.45;;;;;;;9.30;100.00;100943.38;4896922;29;20404;-74
2022/11/08 01:17:20;;;;;;;13.23;3.63;;;;;;;9.27;100.00;100940.84;4898000;29;20082;-74
2022/11/08 01:19:45;;;;;;;10.10;3.50;;;;;;;9.27;100.00;100941.69;4896512;29;20024;-74
2022/11/08 01:22:10;;;;;;;11.75;3.38;;;;;;;9.26;100.00;100934.78;4906171;29;20036;-74
2022/11/08 01:24:35;;;;;;;12.82;3.60;;;;;;;9.25;100.00;100929.59;4901216;29;20028;-74
2022/11/08 01:27:01;;;;;;;12.63;3.05;;;;;;;9.22;100.00;100933.13;4899871;29;20029;-74
2022/11/08 01:29:26;;;;;;;14.40;3.97;;;;;;;9.20;100.00;100932.28;4898616;29;20033;-74
2022/11/08 01:31:51;;;;;;;11.77;3.95;;;;;;;9.20;100.00;100926.22;4897184;29;20029;-74
2022/11/08 01:34:16;;;;;;;11.50;4.00;;;;;;;9.18;100.00;100926.22;4905661;29;20024;-74
2022/11/08 01:36:42;;;;;;;10.60;4.03;;;;;;;9.18;100.00;100920.16;4901635;29;20057;-74
2022/11/08 01:39:07;;;;;;;10.48;4.20;;;;;;;9.18;100.00;100923.63;4904812;29;20083;-74
2022/11/08 01:41:32;;;;;;;10.23;3.85;;;;;;;9.17;100.00;100910.66;4897080;29;20465;-74
2022/11/08 01:43:59;;;;;;;12.52;4.47;;;;;;;9.15;100.00;100918.47;4897742;29;20033;-74
2022/11/08 01:46:34;;;;;;;13.02;4.28;;;;;;;9.17;100.00;100910.66;4897002;29;20092;-74
2022/11/08 01:49:38;;;;;;;9.50;4.28;;;;;;;9.10;100.00;100900.34;4897626;29;20035;-74
2022/11/08 01:52:06;;;;;;;13.48;4.97;;;;;;;9.10;100.00;100891.69;4895090;29;20032;-74
2022/11/08 01:54:34;;;;;;;12.93;4.22;;;;;;;9.10;100.00;100887.34;4897269;29;20024;-74
2022/11/08 01:57:04;;;;;;;9.88;4.15;;;;;;;9.09;100.00;100884.75;4897608;29;20032;-74
2022/11/08 01:59:30;;;;;;;11.32;4.22;;;;;;;9.06;100.00;100879.63;4897821;29;20112;-74
2022/11/08 02:01:56;;;;;;;12.95;4.18;;;;;;;9.06;100.00;100879.63;4896909;29;20036;-74
2022/11/08 02:04:21;;;;;;;10.75;4.35;;;;;;;9.08;100.00;100877.84;4897902;29;20040;-74
2022/11/08 02:06:47;;;;;;;10.35;3.60;;;;;;;9.05;100.00;100870.94;4897405;29;20108;-74
2022/11/08 02:09:17;;;;;;;15.88;4.28;;;;;;;9.01;100.00;100863.25;4896908;29;20027;-74
2022/11/08 02:11:45;;;;;;;12.27;4.20;;;;;;;9.01;100.00;100861.50;4897547;29;20040;-73
2022/11/08 02:14:10;;;;;;;14.57;4.22;;;;;;;8.99;100.00;100860.69;4897540;29;20037;-74
2022/11/08 02:16:35;;;;;;;9.98;4.13;;;;;;;9.01;100.00;100866.69;4897307;29;20452;-74
2022/11/08 02:19:01;;;;;;;8.63;4.00;;;;;;;9.02;100.00;100864.94;4897163;29;20043;-74
2022/11/08 02:21:30;;;;;;;8.32;3.58;;;;;;;9.02;100.00;100858.00;4897289;29;20025;-74
2022/11/08 02:24:01;;;;;;;9.93;3.90;;;;;;;9.00;100.00;100856.34;4896771;29;20080;-74
2022/11/08 02:26:35;;;;;;;12.32;3.70;;;;;;;8.97;100.00;100836.44;4900700;29;20032;-74
2022/11/08 02:29:18;;;;;;;;;;;;;;;9.01;100.00;100853.69;4905455;29;20031;-73
2022/11/08 02:31:44;;;;;;;10.68;3.83;;;;;;;8.98;100.00;100840.75;4898622;29;20431;-73
2022/11/08 02:34:10;;;;;;;8.65;3.47;;;;;;;8.98;100.00;100840.75;4901708;29;20119;-74
2022/11/08 02:36:35;;;;;;;13.55;4.50;;;;;;;8.84;100.00;100814.97;4901406;29;20047;-74
2022/11/08 02:39:01;;;;;;;12.13;3.28;;;;;;;8.90;100.00;100832.22;4908658;29;20033;-74
2022/11/08 02:41:27;;;;;;;13.25;3.42;;;;;;;8.89;100.00;100817.47;4896344;29;20052;-74
2022/11/08 02:43:52;;;;;;;8.57;3.60;;;;;;;8.82;100.00;100816.72;4896430;29;20087;-74
2022/11/08 02:46:17;;;;;;;6.60;3.20;;;;;;;8.84;100.00;100816.72;4896363;29;20292;-74
2022/11/08 02:48:43;;;;;;;11.88;3.08;;;;;;;8.85;100.00;100816.69;4894724;29;20025;-74
2022/11/08 02:51:08;;;;;;;9.20;3.15;;;;;;;8.85;100.00;100808.88;4903834;29;20020;-74
2022/11/08 02:53:33;;;;;;;11.88;3.22;;;;;;;8.85;100.00;100808.03;4902760;29;20380;-74
2022/11/08 02:55:58;;;;;;;6.63;3.00;;;;;;;8.80;100.00;100795.13;4905368;29;20388;-74
2022/11/08 02:58:24;;;;;;;11.80;3.00;;;;;;;8.81;100.00;100795.97;4900486;29;20020;-74
2022/11/08 03:00:49;;;;;;;9.48;3.47;;;;;;;8.83;100.00;100794.22;4900943;29;20025;-74
2022/11/08 03:03:14;;;;;;;13.77;3.42;;;;;;;8.78;100.00;100788.22;4901161;29;20029;-74
2022/11/08 03:05:42;;;;;;;8.10;3.40;;;;;;;8.81;100.00;100790.78;4900159;29;20115;-74
2022/11/08 03:08:07;;;;;;;8.18;3.03;;;;;;;8.81;100.00;100788.19;4903440;29;20021;-74
2022/11/08 03:10:32;;;;;;;4.85;3.00;;;;;;;8.78;100.00;100778.69;4900705;29;20361;-74
2022/11/08 03:13:00;;;;;;;9.95;3.53;;;;;;;8.77;100.00;100770.94;4899940;29;20028;-74
2022/11/08 03:15:26;;;;;;;10.38;3.20;;;;;;;8.75;100.00;100764.88;4900613;29;20044;-74
2022/11/08 03:17:52;;;;;;;9.77;3.00;;;;;;;8.72;100.00;100764.94;4899681;29;20461;-74
2022/11/08 03:20:18;;;;;;;11.25;3.53;;;;;;;8.66;100.00;100756.38;4909153;29;20115;-74
2022/11/08 03:22:44;;;;;;;8.40;3.17;;;;;;;8.68;100.00;100762.38;4901813;29;20024;-74
2022/11/08 03:25:09;;;;;;;9.52;3.55;;;;;;;8.66;100.00;100758.97;4899660;29;20507;-74
2022/11/08 03:27:36;;;;;;;8.90;2.97;;;;;;;8.66;100.00;100761.56;4907972;29;20036;-74
2022/11/08 03:30:01;;;;;;;8.23;3.45;;;;;;;8.65;100.00;100761.59;4905990;29;20035;-74
2022/11/08 03:32:26;;;;;;;9.73;3.30;;;;;;;8.64;100.00;100750.34;4900484;29;20025;-74
2022/11/08 03:34:52;;;;;;;10.30;3.38;;;;;;;8.59;100.00;100749.53;4909961;29;20052;-74
2022/11/08 03:37:17;;;;;;;10.23;3.15;;;;;;;8.54;100.00;100740.97;4902669;29;20053;-74
2022/11/08 03:39:42;;;;;;;8.30;3.20;;;;;;;8.51;100.00;100734.97;4902150;29;20111;-74
2022/11/08 03:42:07;;;;;;;7.50;3.17;;;;;;;8.52;100.00;100734.94;4905458;29;20103;-73
2022/11/08 03:44:33;;;;;;;13.20;3.03;;;;;;;8.52;100.00;100727.16;4905127;29;20469;-74
2022/11/08 03:46:59;;;;;;;6.68;3.30;;;;;;;8.50;100.00;100702.06;4900437;29;20086;-74
2022/11/08 03:49:25;;;;;;;9.77;3.65;;;;;;;8.48;100.00;100712.50;4915599;29;20080;-74
2022/11/08 03:51:51;;;;;;;11.00;3.30;;;;;;;8.43;100.00;100703.91;4899196;29;20036;-74
2022/11/08 03:54:16;;;;;;;9.02;3.75;;;;;;;8.45;100.00;100699.56;4899272;29;20028;-74
2022/11/08 03:56:41;;;;;;;12.25;3.75;;;;;;;8.45;100.00;100699.56;4911418;29;20043;-74
2022/11/08 03:59:07;;;;;;;8.43;3.63;;;;;;;8.49;100.00;100690.81;4904707;29;20464;-74
2022/11/08 04:01:32;;;;;;;8.43;3.85;;;;;;;8.47;100.00;100692.59;4904358;29;20032;-74
2022/11/08 04:03:58;;;;;;;11.07;3.53;;;;;;;8.49;100.00;100688.22;4906108;29;20064;-74
2022/11/08 04:06:23;;;;;;;8.23;3.47;;;;;;;8.44;100.00;100687.47;4910761;29;20036;-74
2022/11/08 04:08:48;;;;;;;9.23;3.25;;;;;;;8.47;100.00;100687.41;4909664;29;20115;-74
2022/11/08 04:16:41;;;;;;;6.65;3.10;;;;;;;8.43;100.00;100664.94;4902245;29;20452;-74
2022/11/08 04:21:52;;;;;;;15.50;4.72;;;;;;;8.37;100.00;100649.44;4897183;29;20117;-74
2022/11/08 04:24:18;;;;;;;13.65;4.80;;;;;;;8.40;100.00;100652.00;4906089;29;20024;-74
2022/11/08 04:26:43;;;;;;;15.55;5.40;;;;;;;8.48;100.00;100652.75;4899067;29;20052;-74
2022/11/08 04:29:09;;;;;;;16.25;4.63;;;;;;;8.49;100.00;100657.03;4900610;29;20036;-74
2022/11/08 04:31:35;;;;;;;12.13;4.88;;;;;;;8.51;100.00;100652.69;4899569;29;20080;-74
2022/11/08 04:34:00;;;;;;;12.60;4.50;;;;;;;8.50;100.00;100648.38;4899125;29;20037;-74
2022/11/08 04:36:25;;;;;;;16.95;4.50;;;;;;;8.49;100.00;100640.59;4898953;29;20024;-74
2022/11/08 04:38:52;;;;;;;11.02;4.57;;;;;;;8.53;100.00;100634.47;4899117;29;20028;-74
2022/11/08 04:41:20;;;;;;;14.13;4.70;;;;;;;8.54;100.00;100634.44;4901354;29;20024;-74
2022/11/08 04:43:45;;;;;;;12.98;3.90;;;;;;;8.55;100.00;100630.09;4898606;29;20380;-74
2022/11/08 04:46:13;;;;;;;11.00;4.40;;;;;;;8.59;100.00;100630.00;4898940;29;20057;-74
2022/11/08 04:48:39;;;;;;;10.48;4.38;;;;;;;8.56;100.00;100627.47;4898827;29;20021;-74
2022/11/08 04:51:08;;;;;;;11.95;4.03;;;;;;;8.53;100.00;100622.31;4898636;29;20077;-74
2022/11/08 04:53:33;;;;;;;9.05;3.85;;;;;;;8.49;100.00;100605.09;4898869;29;20473;-74
2022/11/08 04:56:06;;;;;;;10.90;3.78;;;;;;;8.45;100.00;100606.03;4898414;29;20039;-74
2022/11/08 04:58:43;;;;;;;9.23;3.35;;;;;;;8.42;100.00;100606.94;4898314;29;20037;-74
2022/11/08 05:01:10;;;;;;;8.95;3.63;;;;;;;8.41;100.00;100606.97;4899148;29;20508;-74
2022/11/08 05:03:35;;;;;;;8.80;3.30;;;;;;;8.35;100.00;100605.31;4898183;29;20136;-74
2022/11/08 05:06:06;;;;;;;12.40;4.15;;;;;;;8.35;100.00;100614.84;4898775;29;20440;-74
2022/11/08 05:08:31;;;;;;;13.52;3.83;;;;;;;8.32;100.00;100604.50;4898442;29;20076;-74
2022/11/08 05:11:06;;;;;;;13.45;4.03;;;;;;;8.31;100.00;100590.66;4897748;29;20071;-74
2022/11/08 05:13:31;;;;;;;8.65;3.70;;;;;;;8.31;100.00;100598.47;4898438;29;20100;-74
2022/11/08 05:16:01;;;;;;;9.85;4.00;;;;;;;8.30;100.00;100601.06;4897750;29;20476;-74
2022/11/08 05:18:28;;;;;;;8.15;3.42;;;;;;;8.26;100.00;100605.47;4898413;29;20036;-74
2022/11/08 05:23:42;;;;;;;10.15;4.30;;;;;;;8.19;100.00;100604.72;4897872;29;20503;-74
2022/11/08 05:26:08;;;;;;;9.50;3.40;;;;;;;8.18;100.00;100592.63;4897750;29;20389;-74
2022/11/08 05:28:34;;;;;;;10.18;3.80;;;;;;;8.20;100.00;100580.44;4898222;29;20029;-74
2022/11/08 05:30:59;;;;;;;9.60;3.70;;;;;;;8.21;100.00;100578.75;4897922;29;20043;-74
2022/11/08 05:33:24;;;;;;;8.57;3.40;;;;;;;8.11;100.00;100571.97;4897333;29;20028;-74
2022/11/08 05:35:50;;;;;;;7.85;3.38;;;;;;;8.18;100.00;100586.59;4898093;29;20556;-74
2022/11/08 05:38:15;;;;;;;8.02;2.90;;;;;;;8.12;100.00;100577.16;4898000;29;20039;-74
2022/11/08 05:40:40;;;;;;;9.40;3.50;;;;;;;8.13;100.00;100578.00;4897504;29;20029;-74
2022/11/08 05:43:06;;;;;;;11.20;3.63;;;;;;;8.17;100.00;100585.72;4897850;29;20456;-74
2022/11/08 05:45:31;;;;;;;10.52;3.60;;;;;;;8.15;100.00;100576.25;4897162;29;20132;-74
2022/11/08 05:48:02;;;;;;;7.38;3.35;;;;;;;8.16;100.00;100586.59;4897635;29;20107;-74
2022/11/08 05:50:28;;;;;;;8.57;3.55;;;;;;;8.16;100.00;100578.81;4897892;29;20029;-74
2022/11/08 05:52:53;;;;;;;13.88;3.72;;;;;;;8.18;100.00;100576.19;4904406;29;20164;-74
2022/11/08 05:55:19;;;;;;;9.65;4.20;;;;;;;8.13;100.00;100562.44;4895086;29;20108;-74
2022/11/08 05:57:44;;;;;;;7.88;3.83;;;;;;;8.17;100.00;100575.34;4896340;29;20425;-74
2022/11/08 06:00:11;;;;;;;9.52;3.20;;;;;;;8.16;100.00;100563.22;4909247;29;20043;-74
2022/11/08 06:02:36;;;;;;;8.75;3.50;;;;;;;8.17;100.00;100575.34;4897598;29;20504;-74
2022/11/08 06:05:01;;;;;;;15.13;3.70;;;;;;;8.17;100.00;100561.47;4900202;29;20028;-74
2022/11/08 06:07:27;;;;;;;9.77;3.67;;;;;;;8.18;100.00;100566.66;4895553;29;20032;-74
2022/11/08 06:09:52;;;;;;;12.65;3.80;;;;;;;8.17;100.00;100558.88;4904411;29;20025;-74
2022/11/08 06:12:19;;;;;;;10.20;3.47;;;;;;;8.15;100.00;100556.31;4899270;29;20028;-74
2022/11/08 06:14:44;;;;;;;12.00;3.90;;;;;;;8.18;100.00;100568.41;4896908;29;20028;-74
2022/11/08 06:17:09;;;;;;;11.88;3.83;;;;;;;8.17;100.00;100561.47;4897363;29;20029;-74
2022/11/08 06:19:34;;;;;;;10.18;3.65;;;;;;;8.15;100.00;100560.66;4897591;29;20471;-74
2022/11/08 06:21:59;;;;;;;12.50;3.97;;;;;;;8.15;100.00;100565.88;4896736;29;20032;-74
2022/11/08 06:24:25;;;;;;;10.35;3.58;;;;;;;8.12;100.00;100564.16;4900848;29;20040;-74
2022/11/08 06:26:50;;;;;;;9.10;3.85;;;;;;;8.13;100.00;100565.03;4896411;29;20421;-74
2022/11/08 06:29:15;;;;;;;11.60;3.97;;;;;;;8.11;100.00;100553.78;4897178;29;20553;-74
2022/11/08 06:31:41;;;;;;;8.63;3.55;;;;;;;8.09;100.00;100550.38;4910644;29;20027;-74
2022/11/08 06:34:08;;;;;;;11.23;3.45;;;;;;;8.13;100.00;100557.22;4906112;29;20024;-74
2022/11/08 06:36:34;;;;;;;8.45;3.38;;;;;;;8.16;100.00;100567.56;4895731;29;20048;-74
2022/11/08 06:38:59;;;;;;;7.78;3.30;;;;;;;8.16;100.00;100571.00;4895657;29;20480;-74
2022/11/08 06:41:26;;;;;;;10.32;4.03;;;;;;;8.11;100.00;100562.47;4906514;29;20040;-74
2022/11/08 06:43:51;;;;;;;8.43;3.42;;;;;;;8.14;100.00;100570.19;4901805;29;20039;-74
2022/11/08 06:46:17;;;;;;;7.78;3.33;;;;;;;8.12;100.00;100571.97;4895632;29;20049;-74
2022/11/08 06:48:42;;;;;;;11.57;3.58;;;;;;;8.12;100.00;100561.56;4897189;29;20036;-74
2022/11/08 06:51:07;;;;;;;7.22;3.25;;;;;;;8.12;100.00;100574.56;4901395;29;20037;-74
2022/11/08 06:53:33;;;;;;;7.18;3.20;;;;;;;8.06;100.00;100561.69;4899296;29;20481;-74
2022/11/08 06:55:59;;;;;;;7.00;3.70;;;;;;;8.06;100.00;100564.28;4908988;29;20025;-74
2022/11/08 06:58:25;;;;;;;10.45;3.90;;;;;;;8.09;100.00;100574.59;4908065;29;20088;-73
2022/11/08 07:00:50;;;;;;;9.82;3.70;;;;;;;8.09;100.00;100576.34;4896254;29;20040;-74
2022/11/08 07:03:16;;;;;;;7.72;3.60;;;;;;;8.05;100.00;100575.56;4907007;29;20034;-74
2022/11/08 07:05:41;;;;;;;10.07;3.65;;;;;;;8.07;100.00;100576.38;4899538;29;20040;-74
2022/11/08 07:08:07;;;;;;;8.63;3.20;;;;;;;8.07;100.00;100583.31;4905992;29;20453;-73
2022/11/08 07:10:32;;;;;;;8.15;3.40;;;;;;;8.10;100.00;100584.09;4896378;29;20437;-73
2022/11/08 07:13:06;;;;;;;7.45;3.83;;;;;;;8.16;100.00;100593.53;4896906;29;20091;-74
2022/11/08 07:15:32;;;;;;;;;;;;;;;8.18;100.00;100592.63;4897297;29;20081;-73
2022/11/08 07:18:11;;;;;;;9.70;3.25;;;;;;;8.21;100.00;100589.97;4896539;29;19919;-73
2022/11/08 07:20:37;;;;;;;8.30;3.10;;;;;;;8.18;100.00;100590.03;4901007;29;20127;-74
2022/11/08 07:23:03;;;;;;;5.05;3.13;;;;;;;8.20;100.00;100575.25;4896713;29;20029;-76
2022/11/08 07:25:30;;;;;;;8.27;2.88;;;;;;;8.18;100.00;100582.25;4900753;29;20032;-82
2022/11/08 07:28:00;;;;;;;7.40;3.25;;;;;;;8.23;100.00;100571.75;4903796;29;20037;-76
2022/11/08 07:30:26;;;;;;;6.88;2.83;;;;;;;8.23;100.00;100579.56;4907514;29;20032;-78
2022/11/08 07:32:52;;;;;;;6.88;3.17;;;;;;;8.30;100.00;100577.69;4896276;29;20076;-78
2022/11/08 07:35:18;;;;;;;8.02;2.92;;;;;;;8.34;100.00;100582.81;4897164;29;20508;-79
2022/11/08 07:37:43;;;;;;;7.13;2.78;;;;;;;8.34;100.00;100577.63;4895104;29;20036;-79
2022/11/08 07:40:10;;;;;;;10.10;3.05;;;;;;;8.38;100.00;100579.31;4898328;29;20456;-79
2022/11/08 07:42:36;;;;;;;4.50;3.00;;;;;;;8.43;100.00;100566.22;4911892;29;20072;-79
2022/11/08 07:45:03;;;;;;;7.30;2.88;;;;;;;8.49;100.00;100570.47;4902153;29;20107;-79
2022/11/08 07:47:29;;;;;;;8.77;2.60;;;;;;;8.56;100.00;100572.91;4899885;29;20404;-79
2022/11/08 07:49:54;;;;;;;5.88;2.47;;;;;;;8.74;100.00;100578.63;4899673;29;20029;-79
2022/11/08 07:52:19;;;;;;;5.05;2.25;;;;;;;8.84;100.00;100562.81;4904305;29;20037;-78
2022/11/08 07:54:44;;;;;;;6.70;2.35;;;;;;;8.99;100.00;100566.84;4899646;29;20067;-79
2022/11/08 07:57:10;;;;;;;5.88;2.55;;;;;;;9.10;100.00;100558.81;4898896;29;20025;-79
2022/11/08 07:59:35;;;;;;;3.70;2.17;;;;;;;9.21;100.00;100558.56;4905296;29;20043;-79
2022/11/08 08:02:01;;;;;;;2.45;2.00;;;;;;;9.38;100.00;100565.13;4897869;29;20035;-80
2022/11/08 08:04:28;;;;;;;2.60;1.73;;;;;;;9.53;100.00;100561.28;4899115;29;20071;-80
2022/11/08 08:06:53;;;;;;;6.00;1.88;;;;;;;9.73;100.00;100554.75;4899315;29;20037;-79
2022/11/08 08:09:18;;;;;;;4.93;1.75;;;;;;;9.84;100.00;100555.31;4899986;29;20146;-79
2022/11/08 08:11:44;;;;;;;3.08;1.60;;;;;;;9.99;100.00;100560.16;4899561;29;20029;-80
2022/11/08 08:14:09;;;;;;;4.07;2.00;;;;;;;10.12;100.00;100557.25;4899078;29;20048;-81
2022/11/08 08:16:35;;;;;;;4.93;1.63;;;;;;;10.21;100.00;100559.59;4900149;29;20032;-78
2022/11/08 08:19:01;;;;;;;5.03;1.77;;;;;;;10.27;100.00;100555.13;4899046;29;20032;-77
2022/11/08 08:21:26;;;;;;;3.03;1.75;;;;;;;10.35;100.00;100570.53;4899024;29;20036;-78
2022/11/08 08:23:52;;;;;;;6.43;1.90;;;;;;;10.42;100.00;100569.47;4898908;29;20120;-78
2022/11/08 08:26:17;;;;;;;3.78;1.88;;;;;;;10.53;98.04;100574.41;4899019;29;20033;-78
2022/11/08 08:28:42;;;;;;;4.20;1.73;;;;;;;10.61;98.05;100571.59;4898930;29;20036;-78
2022/11/08 08:31:07;;;;;;;2.35;1.75;;;;;;;10.65;97.15;100579.28;4899038;29;20031;-78
2022/11/08 08:33:33;;;;;;;4.20;1.55;;;;;;;10.64;97.82;100572.34;4952386;23;20105;-78
2022/11/08 08:36:00;;;;;;;4.28;1.73;;;;;;;10.75;97.23;100600.72;4955828;28;20398;-78
2022/11/08 08:38:44;;;;;;;3.80;1.70;;;;;;;10.53;97.92;100569.22;5003134;23;20063;-78
2022/11/08 08:41:15;;;;;;;12.25;1.83;;;;;;;10.74;97.42;100570.34;4936845;29;20439;-78
2022/11/08 08:43:45;;;;;;;4.35;2.05;;;;;;;10.93;97.34;100584.56;4936148;29;20026;-78
2022/11/08 08:46:31;;;;;;;4.78;1.60;;;;;;;10.82;95.62;100544.88;4936358;29;20078;-79
2022/11/08 08:49:05;;;;;;;6.03;1.88;;;;;;;10.90;94.06;100536.84;4936349;29;20028;-79
2022/11/08 08:51:42;;;;;;;2.13;1.63;;;;;;;10.95;94.17;100514.09;4935716;29;20518;-79
2022/11/08 08:54:08;;;;;;;3.47;1.73;;;;;;;11.36;93.96;100564.16;4936731;29;20107;-79
2022/11/08 08:56:33;;;;;;;4.90;1.88;;;;;;;11.43;92.92;100561.31;4936378;29;20106;-79
2022/11/08 08:58:58;;;;;;;4.70;1.73;;;;;;;11.51;91.31;100565.41;4936400;29;20035;-78
2022/11/08 09:01:24;;;;;;;6.15;1.92;;;;;;;11.49;92.50;100562.88;4936688;29;20083;-78
2022/11/08 09:03:49;;;;;;;4.90;1.92;;;;;;;11.49;91.79;100558.50;4935416;29;20094;-78
2022/11/08 09:06:14;;;;;;;4.63;1.80;;;;;;;11.56;92.04;100551.31;4936752;29;20480;-78
2022/11/08 09:08:40;;;;;;;4.82;2.22;;;;;;;11.61;92.30;100536.38;4935665;29;20031;-78
2022/11/08 09:11:05;;;;;;;6.80;2.22;;;;;;;11.72;90.33;100542.09;4934392;29;20046;-79
2022/11/08 09:13:31;;;;;;;5.72;1.88;;;;;;;11.78;89.15;100554.09;4936354;29;20028;-79
2022/11/08 09:15:57;;;;;;;4.32;1.85;;;;;;;11.84;89.62;100553.94;4935812;29;20144;-79
2022/11/08 09:18:22;;;;;;;3.97;1.60;;;;;;;11.84;89.60;100551.31;4927566;29;20365;-79
2022/11/08 09:20:48;;;;;;;3.40;1.75;;;;;;;11.91;87.23;100560.66;4936022;29;20034;-79
2022/11/08 09:23:17;;;;;;;4.78;2.05;;;;;;;11.94;88.77;100550.09;4935902;29;20023;-79
2022/11/08 09:25:43;;;;;;;4.47;1.98;;;;;;;11.89;89.53;100527.66;4935326;29;20087;-79
2022/11/08 09:28:08;;;;;;;3.67;1.70;;;;;;;11.90;90.84;100540.69;4935920;29;20028;-79
2022/11/08 09:30:34;;;;;;;3.55;1.73;;;;;;;11.93;90.51;100542.31;4932639;29;20947;-79
2022/11/08 09:33:00;;;;;;;4.03;1.75;;;;;;;11.93;89.92;100543.19;4929718;29;20108;-80
2022/11/08 09:35:25;;;;;;;5.50;1.73;;;;;;;11.95;87.56;100540.50;4936747;29;20123;-79
2022/11/08 09:37:54;;;;;;;4.78;2.10;;;;;;;11.99;88.42;100542.09;4935519;29;20075;-79
2022/11/08 09:40:25;;;;;;;6.25;1.83;;;;;;;12.00;88.83;100542.94;4941166;29;20500;-79
2022/11/08 09:43:11;;;;;;;8.45;2.38;;;;;;;12.19;89.05;100546.63;4935833;29;20131;-79
2022/11/08 09:45:48;;;;;;;5.10;1.73;;;;;;;12.34;88.33;100543.50;4930333;29;20023;-79
2022/11/08 09:48:23;;;;;;;4.72;1.80;;;;;;;12.53;88.12;100537.63;4935954;29;20031;-79
2022/11/08 09:50:51;;;;;;;5.30;2.25;;;;;;;12.59;86.47;100534.78;4930767;29;20468;-78
2022/11/08 09:53:33;;;;;;;4.32;1.80;;;;;;;12.62;86.54;100552.94;4934531;29;20046;-77
2022/11/08 09:56:05;;;;;;;3.42;1.67;;;;;;;12.73;88.07;100556.03;4933231;29;20118;-77
2022/11/08 09:58:41;;;;;;;4.47;1.88;;;;;;;12.71;89.52;100552.63;4934497;29;20035;-78
2022/11/08 10:01:10;;;;;;;6.82;1.80;;;;;;;12.76;86.93;100553.31;4935067;29;20019;-77
2022/11/08 10:03:47;;;;;;;3.67;1.73;;;;;;;12.77;85.67;100555.00;4934937;29;20420;-83
2022/11/08 10:06:43;;;;;;;3.63;1.80;;;;;;;12.84;87.32;100555.63;4934236;29;20026;-79
2022/11/08 10:09:27;;;;;;;3.35;1.65;;;;;;;12.95;85.44;100556.09;4932418;29;20034;-75
2022/11/08 10:12:10;;;;;;;;;;;;;;;13.12;88.37;100556.31;4931107;29;20798;-76
2022/11/08 10:14:40;;;;;;;6.70;1.85;;;;;;;13.25;81.93;100564.56;4934862;29;19925;-77
2022/11/08 10:17:33;;;;;;;4.68;1.77;;;;;;;13.30;83.67;100544.28;4934201;29;20020;-77
2022/11/08 10:20:16;;;;;;;2.58;1.80;;;;;;;13.44;83.54;100571.69;4934898;29;20028;-76
2022/11/08 10:22:53;;;;;;;3.95;1.80;;;;;;;13.50;81.68;100568.81;4934241;29;20403;-76
2022/11/08 10:25:31;;;;;;;5.40;2.03;;;;;;;13.49;82.33;100567.97;4932633;29;20431;-77
2022/11/08 10:28:00;;;;;;;3.22;1.60;;;;;;;13.53;81.07;100573.94;4934708;29;20024;-78
2022/11/08 10:30:33;;;;;;;3.25;1.88;;;;;;;13.60;80.59;100580.63;4932420;29;20031;-74
2022/11/08 10:32:59;;;;;;;3.47;1.90;;;;;;;13.60;80.52;100570.16;4929956;29;20035;-77
2022/11/08 10:35:36;;;;;;;4.50;2.00;;;;;;;13.68;81.13;100573.34;4934638;29;20443;-76
2022/11/08 10:38:08;;;;;;;7.88;2.42;;;;;;;13.74;79.69;100582.72;4934956;29;20071;-79
2022/11/08 10:40:41;;;;;;;7.97;2.08;;;;;;;13.75;79.71;100582.63;4933997;29;20055;-74
2022/11/08 10:43:15;;;;;;;2.95;1.70;;;;;;;13.76;78.04;100586.09;4932467;29;20047;-71
2022/11/08 10:45:41;;;;;;;5.45;2.08;;;;;;;13.79;79.07;100578.97;4933365;29;20047;-76
2022/11/08 10:48:10;;;;;;;5.82;1.70;;;;;;;13.79;80.40;100570.28;4933291;29;20106;-78
2022/11/08 10:50:49;;;;;;;3.22;1.63;;;;;;;13.85;79.52;100575.25;4934654;29;20506;-77
2022/11/08 10:53:21;;;;;;;3.40;1.58;;;;;;;13.95;77.56;100578.34;4932186;29;20043;-78
2022/11/08 10:55:49;;;;;;;5.28;2.00;;;;;;;14.01;78.04;100573.72;4933843;29;20467;-76
2022/11/08 10:58:36;;;;;;;4.18;1.90;;;;;;;14.05;78.19;100575.28;4932131;29;20040;-76
2022/11/08 11:01:24;;;;;;;4.88;2.20;;;;;;;14.09;79.25;100562.88;4919522;29;20118;-78
2022/11/08 11:03:51;;;;;;;3.33;2.08;;;;;;;14.09;74.79;100546.31;4931266;29;20040;-76
2022/11/08 11:06:31;;;;;;;5.43;2.00;;;;;;;14.19;75.15;100561.59;4933776;29;20475;-75
2022/11/08 11:09:02;;;;;;;10.15;1.90;;;;;;;14.13;76.00;100543.50;4932875;29;20111;-78
2022/11/08 11:11:30;;;;;;;6.10;2.08;;;;;;;14.14;77.90;100555.69;4934710;29;20103;-76
2022/11/08 11:14:06;;;;;;;4.55;1.83;;;;;;;14.12;75.61;100538.31;4933517;29;20111;-76
2022/11/08 11:16:32;;;;;;;3.03;1.90;;;;;;;14.13;75.93;100534.81;4936776;29;20512;-76
2022/11/08 11:19:00;;;;;;;4.88;1.90;;;;;;;14.13;74.33;100533.03;4936674;29;20032;-76
2022/11/08 11:21:34;;;;;;;6.80;1.95;;;;;;;14.14;76.99;100539.97;4935840;29;20075;-76
2022/11/08 11:24:09;;;;;;;5.15;1.75;;;;;;;14.07;75.90;100530.66;4937690;29;20063;-77
2022/11/08 11:26:46;;;;;;;1.92;1.50;;;;;;;14.15;74.71;100525.09;4938463;29;20102;-76
2022/11/08 11:29:22;;;;;;;3.90;1.65;;;;;;;14.26;74.68;100522.88;4944555;28;20049;-76
2022/11/08 11:31:51;;;;;;;2.88;1.75;;;;;;;14.35;73.28;100500.59;4928395;29;20024;-76
2022/11/08 11:34:30;;;;;;;3.42;1.83;;;;;;;14.54;77.14;100500.69;4936657;29;20530;-78
2022/11/08 11:37:17;;;;;;;7.85;1.98;;;;;;;14.57;75.10;100509.25;4939801;29;20163;-76
2022/11/08 11:39:53;;;;;;;4.32;1.80;;;;;;;14.67;73.69;100531.53;4939928;29;20035;-76
2022/11/08 11:42:31;;;;;;;3.63;1.85;;;;;;;14.66;73.22;100521.13;4936781;29;20035;-75
2022/11/08 11:45:07;;;;;;;3.40;1.83;;;;;;;14.76;73.98;100522.41;4936799;29;20023;-75
2022/11/08 11:47:39;;;;;;;4.28;1.92;;;;;;;14.79;75.25;100509.13;4926294;29;20028;-74
2022/11/08 11:50:26;;;;;;;2.93;1.80;;;;;;;14.83;72.97;100509.84;4934394;29;20035;-76